sensor_id;sensor_type;location;lat;lon;timestamp;P1;durP1;ratioP1;P2;durP2;ratioP2
1214;SDS011;597;51.998;5.880;2022-08-19T00:01:13;16.70;;;13.60;;
1214;SDS011;597;51.998;5.880;2022-08-19T00:03:38;16.10;;;14.20;;
1214;SDS011;597;51.998;5.880;2022-08-19T00:06:04;17.00;;;14.30;;
1214;SDS011;597;51.998;5.880;2022-08-19T00:08:29;17.30;;;14.97;;
1214;SDS011;597;51.998;5.880;2022-08-19T00:10:54;16.23;;;14.10;;
1214;SDS011;597;51.998;5.880;2022-08-19T00:13:19;17.13;;;14.83;;
1214;SDS011;597;51.998;5.880;2022-08-19T00:15:44;19.10;;;15.20;;
1214;SDS011;597;51.998;5.880;2022-08-19T00:18:10;18.07;;;16.17;;
1214;SDS011;597;51.998;5.880;2022-08-19T00:20:35;19.00;;;15.50;;
1214;SDS011;597;51.998;5.880;2022-08-19T00:23:01;18.70;;;16.40;;
1214;SDS011;597;51.998;5.880;2022-08-19T00:25:28;20.40;;;15.77;;
1214;SDS011;597;51.998;5.880;2022-08-19T00:27:54;22.73;;;16.07;;
1214;SDS011;597;51.998;5.880;2022-08-19T00:30:19;21.03;;;17.30;;
1214;SDS011;597;51.998;5.880;2022-08-19T00:32:44;21.37;;;17.40;;
1214;SDS011;597;51.998;5.880;2022-08-19T00:35:09;20.20;;;17.77;;
1214;SDS011;597;51.998;5.880;2022-08-19T00:37:35;19.63;;;17.20;;
1214;SDS011;597;51.998;5.880;2022-08-19T00:40:00;21.10;;;17.70;;
1214;SDS011;597;51.998;5.880;2022-08-19T00:42:27;21.13;;;18.13;;
1214;SDS011;597;51.998;5.880;2022-08-19T00:44:53;22.43;;;19.20;;
1214;SDS011;597;51.998;5.880;2022-08-19T00:47:18;23.37;;;18.43;;
1214;SDS011;597;51.998;5.880;2022-08-19T00:49:45;21.93;;;19.47;;
1214;SDS011;597;51.998;5.880;2022-08-19T00:52:16;23.67;;;20.20;;
1214;SDS011;597;51.998;5.880;2022-08-19T00:54:43;22.83;;;19.63;;
1214;SDS011;597;51.998;5.880;2022-08-19T00:57:10;21.70;;;19.40;;
1214;SDS011;597;51.998;5.880;2022-08-19T00:59:38;27.70;;;20.20;;
1214;SDS011;597;51.998;5.880;2022-08-19T01:02:04;23.80;;;19.90;;
1214;SDS011;597;51.998;5.880;2022-08-19T01:04:29;26.20;;;20.80;;
1214;SDS011;597;51.998;5.880;2022-08-19T01:06:55;28.17;;;20.60;;
1214;SDS011;597;51.998;5.880;2022-08-19T01:09:20;21.93;;;19.17;;
1214;SDS011;597;51.998;5.880;2022-08-19T01:11:46;22.90;;;20.37;;
1214;SDS011;597;51.998;5.880;2022-08-19T01:14:12;22.53;;;19.37;;
1214;SDS011;597;51.998;5.880;2022-08-19T01:16:38;23.80;;;20.20;;
1214;SDS011;597;51.998;5.880;2022-08-19T01:19:08;24.07;;;19.47;;
1214;SDS011;597;51.998;5.880;2022-08-19T01:21:37;26.50;;;19.70;;
1214;SDS011;597;51.998;5.880;2022-08-19T01:24:04;27.50;;;19.63;;
1214;SDS011;597;51.998;5.880;2022-08-19T01:26:29;27.37;;;21.57;;
1214;SDS011;597;51.998;5.880;2022-08-19T01:28:55;22.50;;;19.00;;
1214;SDS011;597;51.998;5.880;2022-08-19T01:31:22;22.93;;;19.37;;
1214;SDS011;597;51.998;5.880;2022-08-19T01:33:49;26.27;;;19.60;;
1214;SDS011;597;51.998;5.880;2022-08-19T01:36:16;26.23;;;20.93;;
1214;SDS011;597;51.998;5.880;2022-08-19T01:38:47;25.70;;;20.13;;
1214;SDS011;597;51.998;5.880;2022-08-19T01:41:13;23.60;;;20.37;;
1214;SDS011;597;51.998;5.880;2022-08-19T01:43:38;25.73;;;20.57;;
1214;SDS011;597;51.998;5.880;2022-08-19T01:46:04;23.80;;;20.87;;
1214;SDS011;597;51.998;5.880;2022-08-19T01:48:36;25.57;;;20.50;;
1214;SDS011;597;51.998;5.880;2022-08-19T01:51:02;21.70;;;19.07;;
1214;SDS011;597;51.998;5.880;2022-08-19T01:53:28;23.00;;;20.30;;
1214;SDS011;597;51.998;5.880;2022-08-19T01:55:53;26.87;;;20.20;;
1214;SDS011;597;51.998;5.880;2022-08-19T01:58:19;25.63;;;19.80;;
1214;SDS011;597;51.998;5.880;2022-08-19T02:00:45;22.60;;;19.97;;
1214;SDS011;597;51.998;5.880;2022-08-19T02:03:11;24.87;;;18.93;;
1214;SDS011;597;51.998;5.880;2022-08-19T02:05:37;27.37;;;20.57;;
1214;SDS011;597;51.998;5.880;2022-08-19T02:08:02;27.97;;;19.80;;
1214;SDS011;597;51.998;5.880;2022-08-19T02:10:27;27.43;;;22.03;;
1214;SDS011;597;51.998;5.880;2022-08-19T02:12:52;22.03;;;18.10;;
1214;SDS011;597;51.998;5.880;2022-08-19T02:15:19;24.07;;;18.50;;
1214;SDS011;597;51.998;5.880;2022-08-19T02:17:44;24.07;;;18.80;;
1214;SDS011;597;51.998;5.880;2022-08-19T02:20:10;20.73;;;17.93;;
1214;SDS011;597;51.998;5.880;2022-08-19T02:22:36;23.17;;;19.17;;
1214;SDS011;597;51.998;5.880;2022-08-19T02:25:01;20.30;;;18.00;;
1214;SDS011;597;51.998;5.880;2022-08-19T02:27:26;26.77;;;19.00;;
1214;SDS011;597;51.998;5.880;2022-08-19T02:29:51;24.00;;;18.13;;
1214;SDS011;597;51.998;5.880;2022-08-19T02:32:17;22.33;;;19.13;;
1214;SDS011;597;51.998;5.880;2022-08-19T02:34:44;21.67;;;18.10;;
1214;SDS011;597;51.998;5.880;2022-08-19T02:37:09;22.90;;;19.90;;
1214;SDS011;597;51.998;5.880;2022-08-19T02:39:54;26.40;;;18.97;;
1214;SDS011;597;51.998;5.880;2022-08-19T02:42:20;20.90;;;18.43;;
1214;SDS011;597;51.998;5.880;2022-08-19T02:44:45;22.13;;;19.17;;
1214;SDS011;597;51.998;5.880;2022-08-19T02:47:10;20.17;;;18.07;;
1214;SDS011;597;51.998;5.880;2022-08-19T02:49:36;20.73;;;18.53;;
1214;SDS011;597;51.998;5.880;2022-08-19T02:52:01;22.33;;;19.17;;
1214;SDS011;597;51.998;5.880;2022-08-19T02:54:27;21.93;;;19.43;;
1214;SDS011;597;51.998;5.880;2022-08-19T02:56:53;24.10;;;20.47;;
1214;SDS011;597;51.998;5.880;2022-08-19T02:59:18;28.90;;;22.27;;
1214;SDS011;597;51.998;5.880;2022-08-19T03:01:43;23.23;;;20.63;;
1214;SDS011;597;51.998;5.880;2022-08-19T03:04:09;25.03;;;20.40;;
1214;SDS011;597;51.998;5.880;2022-08-19T03:06:39;26.67;;;21.40;;
1214;SDS011;597;51.998;5.880;2022-08-19T03:09:04;25.80;;;21.73;;
1214;SDS011;597;51.998;5.880;2022-08-19T03:11:31;29.57;;;22.47;;
1214;SDS011;597;51.998;5.880;2022-08-19T03:13:56;25.00;;;21.67;;
1214;SDS011;597;51.998;5.880;2022-08-19T03:16:23;24.27;;;20.33;;
1214;SDS011;597;51.998;5.880;2022-08-19T03:18:48;30.43;;;22.00;;
1214;SDS011;597;51.998;5.880;2022-08-19T03:21:17;26.87;;;22.03;;
1214;SDS011;597;51.998;5.880;2022-08-19T03:23:43;27.63;;;20.97;;
1214;SDS011;597;51.998;5.880;2022-08-19T03:26:08;29.60;;;23.60;;
1214;SDS011;597;51.998;5.880;2022-08-19T03:28:34;23.67;;;21.07;;
1214;SDS011;597;51.998;5.880;2022-08-19T03:31:00;32.20;;;22.77;;
1214;SDS011;597;51.998;5.880;2022-08-19T03:33:26;28.13;;;21.93;;
1214;SDS011;597;51.998;5.880;2022-08-19T03:36:02;31.70;;;22.10;;
1214;SDS011;597;51.998;5.880;2022-08-19T03:38:27;24.93;;;20.30;;
1214;SDS011;597;51.998;5.880;2022-08-19T03:40:53;28.70;;;23.37;;
1214;SDS011;597;51.998;5.880;2022-08-19T03:43:18;29.00;;;23.60;;
1214;SDS011;597;51.998;5.880;2022-08-19T03:45:44;29.07;;;22.80;;
1214;SDS011;597;51.998;5.880;2022-08-19T03:48:09;28.23;;;22.27;;
1214;SDS011;597;51.998;5.880;2022-08-19T03:50:38;30.20;;;22.40;;
1214;SDS011;597;51.998;5.880;2022-08-19T03:53:03;28.53;;;21.83;;
1214;SDS011;597;51.998;5.880;2022-08-19T03:55:28;28.83;;;21.87;;
1214;SDS011;597;51.998;5.880;2022-08-19T03:57:54;29.90;;;20.30;;
1214;SDS011;597;51.998;5.880;2022-08-19T04:00:19;30.40;;;23.97;;
1214;SDS011;597;51.998;5.880;2022-08-19T04:02:44;33.70;;;26.67;;
1214;SDS011;597;51.998;5.880;2022-08-19T04:05:09;29.67;;;25.10;;
1214;SDS011;597;51.998;5.880;2022-08-19T04:07:34;38.73;;;25.77;;
1214;SDS011;597;51.998;5.880;2022-08-19T04:10:00;32.63;;;25.73;;
1214;SDS011;597;51.998;5.880;2022-08-19T04:12:25;28.50;;;23.50;;
1214;SDS011;597;51.998;5.880;2022-08-19T04:14:51;32.20;;;24.57;;
1214;SDS011;597;51.998;5.880;2022-08-19T04:17:16;32.30;;;25.60;;
1214;SDS011;597;51.998;5.880;2022-08-19T04:19:41;31.90;;;25.30;;
1214;SDS011;597;51.998;5.880;2022-08-19T04:22:08;36.47;;;24.40;;
1214;SDS011;597;51.998;5.880;2022-08-19T04:24:34;35.43;;;25.80;;
1214;SDS011;597;51.998;5.880;2022-08-19T04:27:00;30.70;;;24.87;;
1214;SDS011;597;51.998;5.880;2022-08-19T04:29:25;36.70;;;27.57;;
1214;SDS011;597;51.998;5.880;2022-08-19T04:31:52;34.33;;;27.00;;
1214;SDS011;597;51.998;5.880;2022-08-19T04:34:19;34.97;;;25.57;;
1214;SDS011;597;51.998;5.880;2022-08-19T04:36:48;32.60;;;25.20;;
1214;SDS011;597;51.998;5.880;2022-08-19T04:39:16;37.87;;;26.67;;
1214;SDS011;597;51.998;5.880;2022-08-19T04:41:42;32.87;;;25.20;;
1214;SDS011;597;51.998;5.880;2022-08-19T04:44:26;35.33;;;27.40;;
1214;SDS011;597;51.998;5.880;2022-08-19T04:46:55;36.10;;;25.37;;
1214;SDS011;597;51.998;5.880;2022-08-19T04:49:21;33.57;;;25.77;;
1214;SDS011;597;51.998;5.880;2022-08-19T04:51:51;32.00;;;23.90;;
1214;SDS011;597;51.998;5.880;2022-08-19T04:54:17;39.20;;;28.10;;
1214;SDS011;597;51.998;5.880;2022-08-19T04:56:43;37.37;;;26.77;;
1214;SDS011;597;51.998;5.880;2022-08-19T04:59:08;35.40;;;26.27;;
1214;SDS011;597;51.998;5.880;2022-08-19T05:01:35;38.40;;;27.90;;
1214;SDS011;597;51.998;5.880;2022-08-19T05:04:02;32.90;;;25.50;;
1214;SDS011;597;51.998;5.880;2022-08-19T05:06:29;33.00;;;24.63;;
1214;SDS011;597;51.998;5.880;2022-08-19T05:08:56;44.07;;;29.60;;
1214;SDS011;597;51.998;5.880;2022-08-19T05:11:24;46.10;;;30.40;;
1214;SDS011;597;51.998;5.880;2022-08-19T05:13:50;35.67;;;28.50;;
1214;SDS011;597;51.998;5.880;2022-08-19T05:16:17;42.43;;;31.27;;
1214;SDS011;597;51.998;5.880;2022-08-19T05:18:43;47.63;;;33.47;;
1214;SDS011;597;51.998;5.880;2022-08-19T05:21:27;51.87;;;32.77;;
1214;SDS011;597;51.998;5.880;2022-08-19T05:24:12;51.80;;;35.97;;
1214;SDS011;597;51.998;5.880;2022-08-19T05:26:39;55.73;;;37.60;;
1214;SDS011;597;51.998;5.880;2022-08-19T05:29:05;72.73;;;42.80;;
1214;SDS011;597;51.998;5.880;2022-08-19T05:31:32;76.17;;;45.50;;
1214;SDS011;597;51.998;5.880;2022-08-19T05:33:57;71.43;;;44.67;;
1214;SDS011;597;51.998;5.880;2022-08-19T05:36:27;71.83;;;43.57;;
1214;SDS011;597;51.998;5.880;2022-08-19T05:38:53;70.27;;;43.27;;
1214;SDS011;597;51.998;5.880;2022-08-19T05:41:18;76.57;;;43.87;;
1214;SDS011;597;51.998;5.880;2022-08-19T05:43:44;68.17;;;44.13;;
1214;SDS011;597;51.998;5.880;2022-08-19T05:46:15;69.43;;;41.50;;
1214;SDS011;597;51.998;5.880;2022-08-19T05:48:41;67.30;;;43.40;;
1214;SDS011;597;51.998;5.880;2022-08-19T05:51:06;70.47;;;41.87;;
1214;SDS011;597;51.998;5.880;2022-08-19T05:53:33;64.00;;;39.93;;
1214;SDS011;597;51.998;5.880;2022-08-19T05:56:03;68.10;;;44.10;;
1214;SDS011;597;51.998;5.880;2022-08-19T05:58:28;62.47;;;40.80;;
1214;SDS011;597;51.998;5.880;2022-08-19T06:00:53;61.13;;;42.67;;
1214;SDS011;597;51.998;5.880;2022-08-19T06:03:19;62.47;;;38.83;;
1214;SDS011;597;51.998;5.880;2022-08-19T06:05:44;60.03;;;41.10;;
1214;SDS011;597;51.998;5.880;2022-08-19T06:08:10;52.43;;;39.10;;
1214;SDS011;597;51.998;5.880;2022-08-19T06:10:36;59.77;;;38.97;;
1214;SDS011;597;51.998;5.880;2022-08-19T06:13:01;56.13;;;37.97;;
1214;SDS011;597;51.998;5.880;2022-08-19T06:15:27;56.90;;;38.20;;
1214;SDS011;597;51.998;5.880;2022-08-19T06:17:52;51.67;;;38.00;;
1214;SDS011;597;51.998;5.880;2022-08-19T06:20:18;50.40;;;36.80;;
1214;SDS011;597;51.998;5.880;2022-08-19T06:22:44;57.87;;;41.20;;
1214;SDS011;597;51.998;5.880;2022-08-19T06:25:11;50.73;;;35.80;;
1214;SDS011;597;51.998;5.880;2022-08-19T06:27:37;52.63;;;37.40;;
1214;SDS011;597;51.998;5.880;2022-08-19T06:30:03;55.73;;;39.13;;
1214;SDS011;597;51.998;5.880;2022-08-19T06:32:28;56.40;;;37.87;;
1214;SDS011;597;51.998;5.880;2022-08-19T06:34:53;50.33;;;37.17;;
1214;SDS011;597;51.998;5.880;2022-08-19T06:37:19;52.63;;;36.93;;
1214;SDS011;597;51.998;5.880;2022-08-19T06:39:46;53.60;;;36.20;;
1214;SDS011;597;51.998;5.880;2022-08-19T06:42:12;45.27;;;35.17;;
1214;SDS011;597;51.998;5.880;2022-08-19T06:44:41;43.13;;;33.90;;
1214;SDS011;597;51.998;5.880;2022-08-19T06:47:07;54.90;;;36.63;;
1214;SDS011;597;51.998;5.880;2022-08-19T06:49:33;51.10;;;37.67;;
1214;SDS011;597;51.998;5.880;2022-08-19T06:51:59;58.77;;;38.20;;
1214;SDS011;597;51.998;5.880;2022-08-19T06:54:24;65.33;;;43.53;;
1214;SDS011;597;51.998;5.880;2022-08-19T06:56:50;75.17;;;44.67;;
1214;SDS011;597;51.998;5.880;2022-08-19T06:59:18;82.27;;;47.63;;
1214;SDS011;597;51.998;5.880;2022-08-19T07:01:53;83.40;;;48.70;;
1214;SDS011;597;51.998;5.880;2022-08-19T07:04:19;85.43;;;51.97;;
1214;SDS011;597;51.998;5.880;2022-08-19T07:06:45;101.40;;;55.13;;
1214;SDS011;597;51.998;5.880;2022-08-19T07:09:12;102.40;;;54.43;;
1214;SDS011;597;51.998;5.880;2022-08-19T07:11:37;91.90;;;51.53;;
1214;SDS011;597;51.998;5.880;2022-08-19T07:14:03;90.53;;;55.10;;
1214;SDS011;597;51.998;5.880;2022-08-19T07:16:28;81.53;;;50.93;;
1214;SDS011;597;51.998;5.880;2022-08-19T07:18:54;79.17;;;51.90;;
1214;SDS011;597;51.998;5.880;2022-08-19T07:21:24;90.00;;;54.40;;
1214;SDS011;597;51.998;5.880;2022-08-19T07:23:51;87.80;;;53.73;;
1214;SDS011;597;51.998;5.880;2022-08-19T07:26:22;81.57;;;50.40;;
1214;SDS011;597;51.998;5.880;2022-08-19T07:28:47;85.23;;;53.10;;
1214;SDS011;597;51.998;5.880;2022-08-19T07:31:14;86.60;;;55.77;;
1214;SDS011;597;51.998;5.880;2022-08-19T07:33:40;99.10;;;58.93;;
1214;SDS011;597;51.998;5.880;2022-08-19T07:36:07;97.03;;;57.93;;
1214;SDS011;597;51.998;5.880;2022-08-19T07:38:33;88.50;;;55.10;;
1214;SDS011;597;51.998;5.880;2022-08-19T07:40:58;100.57;;;60.77;;
1214;SDS011;597;51.998;5.880;2022-08-19T07:43:24;91.10;;;58.67;;
1214;SDS011;597;51.998;5.880;2022-08-19T07:45:51;97.10;;;62.80;;
1214;SDS011;597;51.998;5.880;2022-08-19T07:48:18;88.13;;;56.97;;
1214;SDS011;597;51.998;5.880;2022-08-19T07:50:43;98.13;;;62.90;;
1214;SDS011;597;51.998;5.880;2022-08-19T07:53:08;102.70;;;68.67;;
1214;SDS011;597;51.998;5.880;2022-08-19T07:55:34;115.87;;;70.03;;
1214;SDS011;597;51.998;5.880;2022-08-19T07:57:59;97.93;;;68.97;;
1214;SDS011;597;51.998;5.880;2022-08-19T08:00:24;101.80;;;66.57;;
1214;SDS011;597;51.998;5.880;2022-08-19T08:02:50;100.03;;;67.20;;
1214;SDS011;597;51.998;5.880;2022-08-19T08:05:15;97.93;;;66.63;;
1214;SDS011;597;51.998;5.880;2022-08-19T08:07:59;92.90;;;63.60;;
1214;SDS011;597;51.998;5.880;2022-08-19T08:10:43;93.83;;;64.77;;
1214;SDS011;597;51.998;5.880;2022-08-19T08:13:08;93.87;;;66.70;;
1214;SDS011;597;51.998;5.880;2022-08-19T08:15:34;107.87;;;71.60;;
1214;SDS011;597;51.998;5.880;2022-08-19T08:17:59;98.10;;;67.70;;
1214;SDS011;597;51.998;5.880;2022-08-19T08:20:24;93.90;;;66.07;;
1214;SDS011;597;51.998;5.880;2022-08-19T08:22:50;87.97;;;65.10;;
1214;SDS011;597;51.998;5.880;2022-08-19T08:25:34;94.53;;;65.17;;
1214;SDS011;597;51.998;5.880;2022-08-19T08:28:00;94.70;;;66.20;;
1214;SDS011;597;51.998;5.880;2022-08-19T08:30:26;87.87;;;61.53;;
1214;SDS011;597;51.998;5.880;2022-08-19T08:32:51;82.60;;;60.80;;
1214;SDS011;597;51.998;5.880;2022-08-19T08:35:18;84.17;;;60.20;;
1214;SDS011;597;51.998;5.880;2022-08-19T08:37:45;82.03;;;59.90;;
1214;SDS011;597;51.998;5.880;2022-08-19T08:40:16;88.50;;;59.93;;
1214;SDS011;597;51.998;5.880;2022-08-19T08:42:45;79.20;;;56.97;;
1214;SDS011;597;51.998;5.880;2022-08-19T08:45:14;73.37;;;54.00;;
1214;SDS011;597;51.998;5.880;2022-08-19T08:47:41;79.90;;;56.87;;
1214;SDS011;597;51.998;5.880;2022-08-19T08:50:31;65.03;;;49.17;;
1214;SDS011;597;51.998;5.880;2022-08-19T08:52:56;59.07;;;45.57;;
1214;SDS011;597;51.998;5.880;2022-08-19T08:55:23;55.20;;;42.57;;
1214;SDS011;597;51.998;5.880;2022-08-19T09:00:21;48.57;;;38.83;;
1214;SDS011;597;51.998;5.880;2022-08-19T09:02:46;48.70;;;40.80;;
1214;SDS011;597;51.998;5.880;2022-08-19T09:05:12;48.73;;;40.73;;
1214;SDS011;597;51.998;5.880;2022-08-19T09:12:54;46.00;;;38.37;;
1214;SDS011;597;51.998;5.880;2022-08-19T09:15:34;48.23;;;40.00;;
1214;SDS011;597;51.998;5.880;2022-08-19T09:18:01;45.70;;;38.67;;
1214;SDS011;597;51.998;5.880;2022-08-19T09:20:28;44.20;;;35.67;;
1214;SDS011;597;51.998;5.880;2022-08-19T09:22:53;50.93;;;39.47;;
1214;SDS011;597;51.998;5.880;2022-08-19T09:25:21;42.90;;;37.60;;
1214;SDS011;597;51.998;5.880;2022-08-19T09:27:49;44.77;;;38.50;;
1214;SDS011;597;51.998;5.880;2022-08-19T09:30:16;39.43;;;34.90;;
1214;SDS011;597;51.998;5.880;2022-08-19T09:32:42;48.97;;;38.13;;
1214;SDS011;597;51.998;5.880;2022-08-19T09:35:08;45.00;;;36.97;;
1214;SDS011;597;51.998;5.880;2022-08-19T09:37:33;41.90;;;35.27;;
1214;SDS011;597;51.998;5.880;2022-08-19T09:39:59;44.20;;;36.90;;
1214;SDS011;597;51.998;5.880;2022-08-19T09:42:24;43.80;;;35.00;;
1214;SDS011;597;51.998;5.880;2022-08-19T09:44:49;46.50;;;35.10;;
1214;SDS011;597;51.998;5.880;2022-08-19T09:47:14;41.90;;;35.10;;
1214;SDS011;597;51.998;5.880;2022-08-19T09:49:40;36.77;;;31.33;;
1214;SDS011;597;51.998;5.880;2022-08-19T09:52:07;36.77;;;32.83;;
1214;SDS011;597;51.998;5.880;2022-08-19T09:54:33;36.23;;;29.50;;
1214;SDS011;597;51.998;5.880;2022-08-19T09:56:58;34.60;;;28.90;;
1214;SDS011;597;51.998;5.880;2022-08-19T09:59:25;38.10;;;32.10;;
1214;SDS011;597;51.998;5.880;2022-08-19T10:01:50;40.57;;;32.83;;
1214;SDS011;597;51.998;5.880;2022-08-19T10:04:16;38.80;;;34.47;;
1214;SDS011;597;51.998;5.880;2022-08-19T10:06:41;40.47;;;31.60;;
1214;SDS011;597;51.998;5.880;2022-08-19T10:09:07;40.53;;;32.10;;
1214;SDS011;597;51.998;5.880;2022-08-19T10:11:33;37.63;;;32.53;;
1214;SDS011;597;51.998;5.880;2022-08-19T10:13:59;44.40;;;35.47;;
1214;SDS011;597;51.998;5.880;2022-08-19T10:16:25;38.03;;;32.13;;
1214;SDS011;597;51.998;5.880;2022-08-19T10:18:51;39.07;;;32.83;;
1214;SDS011;597;51.998;5.880;2022-08-19T10:21:21;41.00;;;31.00;;
1214;SDS011;597;51.998;5.880;2022-08-19T10:23:47;35.90;;;30.10;;
1214;SDS011;597;51.998;5.880;2022-08-19T10:26:14;35.27;;;29.07;;
1214;SDS011;597;51.998;5.880;2022-08-19T10:28:40;42.30;;;28.83;;
1214;SDS011;597;51.998;5.880;2022-08-19T10:31:09;34.60;;;30.00;;
1214;SDS011;597;51.998;5.880;2022-08-19T10:33:36;36.17;;;31.10;;
1214;SDS011;597;51.998;5.880;2022-08-19T10:36:03;34.77;;;29.33;;
1214;SDS011;597;51.998;5.880;2022-08-19T10:38:28;42.63;;;30.17;;
1214;SDS011;597;51.998;5.880;2022-08-19T10:40:54;34.47;;;29.00;;
1214;SDS011;597;51.998;5.880;2022-08-19T10:43:19;34.37;;;28.00;;
1214;SDS011;597;51.998;5.880;2022-08-19T10:45:48;34.97;;;29.53;;
1214;SDS011;597;51.998;5.880;2022-08-19T10:48:16;41.93;;;29.37;;
1214;SDS011;597;51.998;5.880;2022-08-19T10:50:41;34.30;;;29.83;;
1214;SDS011;597;51.998;5.880;2022-08-19T10:53:25;35.33;;;30.00;;
1214;SDS011;597;51.998;5.880;2022-08-19T10:55:50;41.50;;;29.80;;
1214;SDS011;597;51.998;5.880;2022-08-19T10:58:34;36.80;;;29.33;;
1214;SDS011;597;51.998;5.880;2022-08-19T11:01:00;34.63;;;28.60;;
1214;SDS011;597;51.998;5.880;2022-08-19T11:03:25;35.63;;;26.73;;
1214;SDS011;597;51.998;5.880;2022-08-19T11:06:03;36.73;;;28.90;;
1214;SDS011;597;51.998;5.880;2022-08-19T11:08:29;30.13;;;25.40;;
1214;SDS011;597;51.998;5.880;2022-08-19T11:10:57;33.40;;;27.43;;
1214;SDS011;597;51.998;5.880;2022-08-19T11:13:29;33.37;;;27.47;;
1214;SDS011;597;51.998;5.880;2022-08-19T11:16:14;30.93;;;27.53;;
1214;SDS011;597;51.998;5.880;2022-08-19T11:18:42;27.00;;;24.10;;
1214;SDS011;597;51.998;5.880;2022-08-19T11:21:13;29.60;;;23.83;;
1214;SDS011;597;51.998;5.880;2022-08-19T11:23:39;26.60;;;23.80;;
1214;SDS011;597;51.998;5.880;2022-08-19T11:26:04;32.50;;;24.10;;
1214;SDS011;597;51.998;5.880;2022-08-19T11:28:29;33.53;;;26.03;;
1214;SDS011;597;51.998;5.880;2022-08-19T11:30:55;28.57;;;24.50;;
1214;SDS011;597;51.998;5.880;2022-08-19T11:33:20;29.43;;;24.17;;
1214;SDS011;597;51.998;5.880;2022-08-19T11:35:45;29.30;;;24.43;;
1214;SDS011;597;51.998;5.880;2022-08-19T11:38:10;36.40;;;25.50;;
1214;SDS011;597;51.998;5.880;2022-08-19T11:40:36;29.30;;;22.67;;
1214;SDS011;597;51.998;5.880;2022-08-19T11:43:01;27.00;;;23.93;;
1214;SDS011;597;51.998;5.880;2022-08-19T11:45:27;27.97;;;23.73;;
1214;SDS011;597;51.998;5.880;2022-08-19T11:47:52;28.50;;;25.03;;
1214;SDS011;597;51.998;5.880;2022-08-19T11:50:18;26.17;;;22.90;;
1214;SDS011;597;51.998;5.880;2022-08-19T11:52:44;27.13;;;24.30;;
1214;SDS011;597;51.998;5.880;2022-08-19T11:55:10;25.43;;;21.57;;
1214;SDS011;597;51.998;5.880;2022-08-19T11:57:35;21.07;;;19.07;;
1214;SDS011;597;51.998;5.880;2022-08-19T12:00:00;24.87;;;22.27;;
1214;SDS011;597;51.998;5.880;2022-08-19T12:02:26;34.20;;;23.23;;
1214;SDS011;597;51.998;5.880;2022-08-19T12:04:51;30.47;;;24.10;;
1214;SDS011;597;51.998;5.880;2022-08-19T12:07:16;29.47;;;22.73;;
1214;SDS011;597;51.998;5.880;2022-08-19T12:09:42;25.20;;;22.60;;
1214;SDS011;597;51.998;5.880;2022-08-19T12:12:07;27.37;;;24.43;;
1214;SDS011;597;51.998;5.880;2022-08-19T12:14:33;25.20;;;22.70;;
1214;SDS011;597;51.998;5.880;2022-08-19T12:16:59;26.20;;;23.40;;
1214;SDS011;597;51.998;5.880;2022-08-19T12:19:25;26.07;;;21.07;;
1214;SDS011;597;51.998;5.880;2022-08-19T12:21:51;25.87;;;21.43;;
1214;SDS011;597;51.998;5.880;2022-08-19T12:24:18;28.57;;;22.37;;
1214;SDS011;597;51.998;5.880;2022-08-19T12:26:48;28.17;;;25.37;;
1214;SDS011;597;51.998;5.880;2022-08-19T12:29:13;29.90;;;24.53;;
1214;SDS011;597;51.998;5.880;2022-08-19T12:31:39;28.30;;;24.87;;
1214;SDS011;597;51.998;5.880;2022-08-19T12:34:04;29.90;;;26.83;;
1214;SDS011;597;51.998;5.880;2022-08-19T12:36:30;27.13;;;24.40;;
1214;SDS011;597;51.998;5.880;2022-08-19T12:38:55;32.77;;;26.93;;
1214;SDS011;597;51.998;5.880;2022-08-19T12:41:22;33.13;;;26.83;;
1214;SDS011;597;51.998;5.880;2022-08-19T12:43:47;30.20;;;25.03;;
1214;SDS011;597;51.998;5.880;2022-08-19T12:46:14;27.97;;;25.20;;
1214;SDS011;597;51.998;5.880;2022-08-19T12:48:39;30.50;;;26.00;;
1214;SDS011;597;51.998;5.880;2022-08-19T12:51:08;30.53;;;26.37;;
1214;SDS011;597;51.998;5.880;2022-08-19T12:53:35;30.23;;;25.63;;
1214;SDS011;597;51.998;5.880;2022-08-19T12:56:00;25.40;;;22.90;;
1214;SDS011;597;51.998;5.880;2022-08-19T12:58:26;29.70;;;26.70;;
1214;SDS011;597;51.998;5.880;2022-08-19T13:00:51;26.80;;;24.20;;
1214;SDS011;597;51.998;5.880;2022-08-19T13:03:17;30.20;;;26.87;;
1214;SDS011;597;51.998;5.880;2022-08-19T13:05:42;32.03;;;28.23;;
1214;SDS011;597;51.998;5.880;2022-08-19T13:08:07;34.53;;;29.23;;
1214;SDS011;597;51.998;5.880;2022-08-19T13:10:33;32.50;;;29.50;;
1214;SDS011;597;51.998;5.880;2022-08-19T13:13:00;33.23;;;27.90;;
1214;SDS011;597;51.998;5.880;2022-08-19T13:15:26;24.37;;;22.07;;
1214;SDS011;597;51.998;5.880;2022-08-19T13:17:53;23.57;;;21.27;;
1214;SDS011;597;51.998;5.880;2022-08-19T13:20:19;26.57;;;23.73;;
1214;SDS011;597;51.998;5.880;2022-08-19T13:22:45;27.07;;;24.40;;
1214;SDS011;597;51.998;5.880;2022-08-19T13:25:11;29.87;;;26.70;;
1214;SDS011;597;51.998;5.880;2022-08-19T13:27:36;25.50;;;23.00;;
1214;SDS011;597;51.998;5.880;2022-08-19T13:30:02;26.60;;;23.97;;
1214;SDS011;597;51.998;5.880;2022-08-19T13:32:46;24.03;;;21.60;;
1214;SDS011;597;51.998;5.880;2022-08-19T13:35:30;25.50;;;22.10;;
1214;SDS011;597;51.998;5.880;2022-08-19T13:37:55;21.10;;;19.00;;
1214;SDS011;597;51.998;5.880;2022-08-19T13:40:22;24.23;;;22.10;;
1214;SDS011;597;51.998;5.880;2022-08-19T13:42:49;21.33;;;19.20;;
1214;SDS011;597;51.998;5.880;2022-08-19T13:45:18;22.10;;;20.00;;
1214;SDS011;597;51.998;5.880;2022-08-19T13:47:47;22.53;;;20.30;;
1214;SDS011;597;51.998;5.880;2022-08-19T13:50:14;22.03;;;19.93;;
1214;SDS011;597;51.998;5.880;2022-08-19T13:52:41;25.63;;;22.90;;
1214;SDS011;597;51.998;5.880;2022-08-19T13:55:08;25.23;;;19.53;;
1214;SDS011;597;51.998;5.880;2022-08-19T13:57:34;21.90;;;19.70;;
1214;SDS011;597;51.998;5.880;2022-08-19T13:59:59;25.77;;;23.20;;
1214;SDS011;597;51.998;5.880;2022-08-19T14:02:25;27.50;;;24.50;;
1214;SDS011;597;51.998;5.880;2022-08-19T14:04:51;26.93;;;23.93;;
1214;SDS011;597;51.998;5.880;2022-08-19T14:07:16;31.27;;;28.47;;
1214;SDS011;597;51.998;5.880;2022-08-19T14:09:41;29.03;;;26.00;;
1214;SDS011;597;51.998;5.880;2022-08-19T14:12:07;30.40;;;27.13;;
1214;SDS011;597;51.998;5.880;2022-08-19T14:14:35;33.53;;;29.23;;
1214;SDS011;597;51.998;5.880;2022-08-19T14:17:01;32.80;;;29.47;;
1214;SDS011;597;51.998;5.880;2022-08-19T14:19:26;37.20;;;30.47;;
1214;SDS011;597;51.998;5.880;2022-08-19T14:21:51;36.90;;;31.97;;
1214;SDS011;597;51.998;5.880;2022-08-19T14:24:16;35.60;;;29.40;;
1214;SDS011;597;51.998;5.880;2022-08-19T14:26:42;41.27;;;30.20;;
1214;SDS011;597;51.998;5.880;2022-08-19T14:29:07;35.57;;;28.60;;
1214;SDS011;597;51.998;5.880;2022-08-19T14:31:32;32.40;;;24.13;;
1214;SDS011;597;51.998;5.880;2022-08-19T14:33:57;32.63;;;29.10;;
1214;SDS011;597;51.998;5.880;2022-08-19T14:36:22;32.37;;;25.50;;
1214;SDS011;597;51.998;5.880;2022-08-19T14:38:48;36.47;;;27.47;;
1214;SDS011;597;51.998;5.880;2022-08-19T14:41:18;36.00;;;26.60;;
1214;SDS011;597;51.998;5.880;2022-08-19T14:43:44;31.20;;;27.70;;
1214;SDS011;597;51.998;5.880;2022-08-19T14:46:11;37.77;;;26.17;;
1214;SDS011;597;51.998;5.880;2022-08-19T14:48:37;35.23;;;28.17;;
1214;SDS011;597;51.998;5.880;2022-08-19T14:51:03;34.90;;;27.30;;
1214;SDS011;597;51.998;5.880;2022-08-19T14:53:28;29.67;;;24.40;;
1214;SDS011;597;51.998;5.880;2022-08-19T14:55:54;26.03;;;23.10;;
1214;SDS011;597;51.998;5.880;2022-08-19T14:58:19;31.53;;;21.60;;
1214;SDS011;597;51.998;5.880;2022-08-19T15:00:44;19.20;;;16.00;;
1214;SDS011;597;51.998;5.880;2022-08-19T15:03:09;17.53;;;14.60;;
1214;SDS011;597;51.998;5.880;2022-08-19T15:05:35;13.63;;;12.23;;